Time;durP1;ratioP1;P1;durP2;ratioP2;P2;SDS_P1;SDS_P2;PMS_P1;PMS_P2;Temp;Humidity;BMP_temperature;BMP_pressure;BME280_temperature;BME280_humidity;BME280_pressure;Samples;Min_cycle;Max_cycle;Signal;HPM_P1;HPM_P2
2023/05/06 00:02:20;;;;;;;9.63;6.95;;;;;;;21.00;47.74;101728.03;5018232;28;20065;-39
2023/05/06 00:04:47;;;;;;;13.30;7.22;;;;;;;20.98;47.60;101716.53;5022013;28;20149;-38
2023/05/06 00:07:14;;;;;;;9.95;6.65;;;;;;;20.98;47.94;101723.78;5024934;28;20049;-38
2023/05/06 00:09:40;;;;;;;9.68;6.80;;;;;;;20.96;47.49;101721.25;5028209;28;20049;-36
2023/05/06 00:12:07;;;;;;;9.85;6.90;;;;;;;20.94;47.60;101720.53;5023276;28;20057;-40
2023/05/06 00:14:33;;;;;;;10.23;7.30;;;;;;;20.91;47.86;101716.31;5023443;28;20407;-36
2023/05/06 00:17:00;;;;;;;10.15;7.00;;;;;;;20.91;47.98;101718.16;5024578;28;20441;-40
2023/05/06 00:19:26;;;;;;;8.80;6.55;;;;;;;20.89;48.02;101718.31;5022277;28;20057;-38
2023/05/06 00:21:54;;;;;;;9.20;6.32;;;;;;;20.87;47.98;101716.78;5021802;28;20056;-39
2023/05/06 00:24:21;;;;;;;7.88;5.68;;;;;;;20.85;47.74;101710.69;5026050;28;20072;-38
2023/05/06 00:26:47;;;;;;;8.65;6.18;;;;;;;20.85;47.86;101716.91;5025957;28;20057;-36
2023/05/06 00:29:14;;;;;;;9.85;7.15;;;;;;;20.83;48.21;101721.63;5024489;28;20065;-37
2023/05/06 00:31:41;;;;;;;8.93;6.53;;;;;;;20.81;47.55;101707.44;5026705;28;20081;-37
2023/05/06 00:34:08;;;;;;;8.13;5.63;;;;;;;20.79;47.99;101714.00;5027401;28;20484;-39
2023/05/06 00:36:35;;;;;;;9.07;6.75;;;;;;;20.78;48.11;101715.81;5024346;28;20053;-37
2023/05/06 00:39:01;;;;;;;8.48;6.22;;;;;;;20.78;48.02;101717.66;5025301;28;20401;-37
2023/05/06 00:41:32;;;;;;;9.07;6.40;;;;;;;20.76;48.00;101715.13;5024557;28;20057;-39
2023/05/06 00:43:59;;;;;;;8.38;6.15;;;;;;;20.74;47.95;101706.34;5025484;28;20049;-36
2023/05/06 00:46:27;;;;;;;7.68;5.65;;;;;;;20.74;47.77;101716.25;5018181;28;20106;-40
2023/05/06 00:48:54;;;;;;;8.50;5.72;;;;;;;20.72;47.73;101712.88;5024919;28;20373;-38
2023/05/06 00:51:21;;;;;;;8.75;6.13;;;;;;;20.71;47.64;101714.75;5022497;28;20370;-37
2023/05/06 00:53:48;;;;;;;8.38;5.97;;;;;;;20.69;48.46;101714.88;5029011;28;20049;-40
2023/05/06 00:56:16;;;;;;;8.82;5.95;;;;;;;20.67;48.22;101698.03;5027617;28;20052;-38
2023/05/06 00:58:46;;;;;;;8.60;5.90;;;;;;;20.67;47.61;101702.56;5027513;28;20534;-37
2023/05/06 01:01:13;;;;;;;8.30;5.70;;;;;;;20.65;48.19;101694.63;5022701;28;20436;-37
2023/05/06 01:03:40;;;;;;;7.30;5.70;;;;;;;20.63;48.44;101699.31;5024329;28;20053;-39
2023/05/06 01:06:06;;;;;;;8.48;6.00;;;;;;;20.62;48.19;101697.63;5024509;28;20053;-39
2023/05/06 01:08:45;;;;;;;7.43;5.53;;;;;;;20.61;48.14;101700.47;5029476;28;20050;-36
2023/05/06 01:11:28;;;;;;;7.82;5.63;;;;;;;20.60;48.47;101694.22;5028168;28;20429;-41
2023/05/06 01:14:12;;;;;;;8.15;5.32;;;;;;;20.59;48.05;101691.69;5027641;28;20053;-40
2023/05/06 01:16:40;;;;;;;7.20;5.43;;;;;;;20.59;48.33;101692.53;5021701;28;20050;-38
2023/05/06 01:19:12;;;;;;;7.63;5.40;;;;;;;20.57;48.05;101689.13;5031768;28;20099;-41
2023/05/06 01:21:44;;;;;;;7.35;5.20;;;;;;;20.54;48.13;101689.44;5026062;28;20045;-40
2023/05/06 01:24:11;;;;;;;7.82;5.57;;;;;;;20.54;48.22;101692.13;5026979;28;20141;-38
2023/05/06 01:26:38;;;;;;;7.95;5.32;;;;;;;20.53;48.20;101697.66;5025461;28;20046;-40
2023/05/06 01:29:04;;;;;;;7.57;5.50;;;;;;;20.51;47.96;101689.75;5026886;28;20138;-38
2023/05/06 01:31:41;;;;;;;7.35;5.25;;;;;;;20.51;47.91;101684.38;5023858;28;20821;-39
2023/05/06 01:34:08;;;;;;;6.80;5.03;;;;;;;20.49;48.44;101680.94;5022973;28;20049;-39
2023/05/06 01:36:56;;;;;;;9.55;5.93;;;;;;;20.47;48.11;101677.53;5019910;28;20534;-38
2023/05/06 01:39:29;;;;;;;6.95;5.32;;;;;;;20.46;48.16;101681.22;5026488;28;20448;-40
2023/05/06 01:41:58;;;;;;;7.65;5.22;;;;;;;20.45;48.02;101684.91;5022371;28;20060;-38
2023/05/06 01:44:28;;;;;;;8.30;5.30;;;;;;;20.44;48.61;101688.59;5026361;28;20053;-41
2023/05/06 01:46:55;;;;;;;8.00;5.30;;;;;;;20.43;48.11;101693.16;5024385;28;20056;-38
2023/05/06 01:49:23;;;;;;;8.02;4.85;;;;;;;20.43;48.44;101692.31;5027247;28;20414;-40
2023/05/06 01:51:51;;;;;;;9.75;5.55;;;;;;;20.40;48.48;101693.44;5024223;28;20096;-39
2023/05/06 01:54:18;;;;;;;6.80;4.95;;;;;;;20.40;47.98;101701.50;5021946;28;20055;-39
2023/05/06 01:56:44;;;;;;;8.13;5.22;;;;;;;20.40;48.56;101697.97;5025947;28;20054;-38
2023/05/06 01:59:11;;;;;;;7.38;5.05;;;;;;;20.39;48.41;101696.28;5022903;28;20478;-38
2023/05/06 02:01:37;;;;;;;6.97;4.97;;;;;;;20.37;47.99;101700.97;5025483;28;20060;-38
2023/05/06 02:04:04;;;;;;;7.03;5.18;;;;;;;20.36;47.98;101700.13;5026131;28;20140;-40
2023/05/06 02:06:31;;;;;;;6.95;4.75;;;;;;;20.35;48.71;101702.97;5025906;28;20041;-37
2023/05/06 02:08:57;;;;;;;6.95;4.65;;;;;;;20.34;47.94;101707.50;5024912;28;20421;-38
2023/05/06 02:11:24;;;;;;;6.43;4.80;;;;;;;20.33;48.57;101711.19;5023513;28;20072;-39
2023/05/06 02:13:51;;;;;;;7.93;4.82;;;;;;;20.32;47.95;101706.78;5025661;28;20088;-38
2023/05/06 02:16:17;;;;;;;7.05;4.90;;;;;;;20.31;48.45;101707.81;5022946;28;20057;-41
2023/05/06 02:18:44;;;;;;;6.82;4.95;;;;;;;20.31;48.11;101706.97;5024177;28;20088;-40
2023/05/06 02:21:11;;;;;;;6.70;4.90;;;;;;;20.29;48.29;101707.09;5022256;28;20129;-38
2023/05/06 02:23:37;;;;;;;6.22;4.65;;;;;;;20.29;48.56;101712.47;5028697;28;20050;-38
2023/05/06 02:26:04;;;;;;;5.93;4.10;;;;;;;20.28;47.85;101709.94;5023396;28;20088;-37
2023/05/06 02:28:31;;;;;;;6.15;4.40;;;;;;;20.27;48.29;101714.47;5020698;28;20065;-38
2023/05/06 02:30:57;;;;;;;7.00;4.85;;;;;;;20.27;48.55;101716.31;5020350;28;20341;-38
2023/05/06 02:33:25;;;;;;;7.45;4.78;;;;;;;20.26;48.67;101718.16;5021845;28;20053;-38
2023/05/06 02:35:51;;;;;;;6.78;5.03;;;;;;;20.24;48.64;101714.75;5023470;28;20132;-39
2023/05/06 02:38:18;;;;;;;6.72;4.97;;;;;;;20.24;47.83;101708.53;5027715;28;20081;-37
2023/05/06 02:40:45;;;;;;;6.72;4.72;;;;;;;20.23;48.12;101712.22;5027418;28;20041;-38
2023/05/06 02:43:11;;;;;;;6.30;4.30;;;;;;;20.21;48.23;101710.50;5027114;28;20049;-38
2023/05/06 02:45:38;;;;;;;6.53;4.20;;;;;;;20.21;48.42;101707.81;5027320;28;20088;-38
2023/05/06 02:48:05;;;;;;;5.18;4.18;;;;;;;20.19;48.82;101709.81;5022012;28;20057;-37
2023/05/06 02:50:33;;;;;;;6.32;4.20;;;;;;;20.19;48.18;101712.50;5021347;28;20045;-38
2023/05/06 02:52:59;;;;;;;5.88;4.32;;;;;;;20.19;47.90;101714.38;5023552;28;20132;-38
2023/05/06 02:55:26;;;;;;;6.53;4.40;;;;;;;20.18;48.62;101709.94;5026718;28;20377;-39
2023/05/06 02:57:52;;;;;;;6.07;4.50;;;;;;;20.17;48.81;101713.66;5024938;28;20456;-41
2023/05/06 03:00:19;;;;;;;5.80;4.32;;;;;;;20.16;48.45;101701.19;5025973;28;20045;-37
2023/05/06 03:02:46;;;;;;;5.28;3.72;;;;;;;20.16;48.59;101704.72;5025155;28;20045;-40
2023/05/06 03:05:12;;;;;;;6.30;4.60;;;;;;;20.15;48.31;101699.50;5021643;28;20230;-38
2023/05/06 03:07:40;;;;;;;5.05;4.07;;;;;;;20.14;48.33;101704.03;5025973;28;20052;-38
2023/05/06 03:10:07;;;;;;;6.47;4.15;;;;;;;20.14;48.07;101714.81;5026255;28;20136;-38
2023/05/06 03:12:33;;;;;;;5.40;4.00;;;;;;;20.14;48.22;101706.72;5025215;28;20124;-38
2023/05/06 03:15:00;;;;;;;5.60;3.78;;;;;;;20.13;48.72;101709.56;5019620;28;20054;-39
2023/05/06 03:17:26;;;;;;;4.95;4.00;;;;;;;20.11;48.17;101693.56;5022458;28;20049;-37
2023/05/06 03:19:53;;;;;;;6.35;4.55;;;;;;;20.11;48.31;101701.63;5025738;28;20456;-38
2023/05/06 03:22:20;;;;;;;5.43;4.13;;;;;;;20.09;48.65;101695.53;5023227;28;20045;-37
2023/05/06 03:24:46;;;;;;;5.95;3.92;;;;;;;20.08;48.20;101696.53;5022140;28;20077;-37
2023/05/06 03:27:13;;;;;;;4.80;3.70;;;;;;;20.09;48.19;101689.31;5018411;28;20053;-38
2023/05/06 03:29:39;;;;;;;5.60;3.90;;;;;;;20.07;48.39;101686.78;5021265;28;20464;-38
2023/05/06 03:32:06;;;;;;;5.65;4.30;;;;;;;20.08;48.04;101690.31;5019513;28;20053;-41
2023/05/06 03:34:32;;;;;;;7.22;4.00;;;;;;;20.07;47.82;101688.63;5016845;28;20081;-40
2023/05/06 03:36:59;;;;;;;6.22;3.97;;;;;;;20.05;48.38;101694.13;5026711;28;20346;-38
2023/05/06 03:39:26;;;;;;;5.80;3.97;;;;;;;20.05;48.75;101691.44;5021865;28;20050;-38
2023/05/06 03:41:52;;;;;;;4.40;3.70;;;;;;;20.05;47.93;101694.13;5024937;28;20049;-38
2023/05/06 03:44:19;;;;;;;5.68;4.13;;;;;;;20.03;48.15;101690.75;5021678;28;20103;-41
2023/05/06 03:46:45;;;;;;;4.60;3.65;;;;;;;20.02;48.71;101682.81;5023063;28;20391;-38
2023/05/06 03:49:12;;;;;;;4.88;3.50;;;;;;;20.02;48.61;101694.44;5024880;28;20189;-37
2023/05/06 03:51:38;;;;;;;5.35;3.90;;;;;;;20.02;48.26;101696.25;5024001;28;20165;-37
2023/05/06 03:54:05;;;;;;;5.85;4.35;;;;;;;20.01;48.82;101691.88;5019045;28;20414;-38
2023/05/06 03:56:31;;;;;;;4.93;3.63;;;;;;;20.00;48.72;101696.41;5022949;28;20049;-38
2023/05/06 03:58:58;;;;;;;5.47;3.95;;;;;;;19.99;48.54;101694.72;5029163;28;20049;-38
2023/05/06 04:01:25;;;;;;;5.18;3.47;;;;;;;19.99;48.15;101694.72;5033832;28;20045;-40
2023/05/06 04:03:53;;;;;;;4.53;3.60;;;;;;;19.99;48.55;101694.72;5029380;28;20045;-39
2023/05/06 04:06:19;;;;;;;5.63;3.95;;;;;;;20.00;48.62;101695.56;5024987;28;20542;-39
2023/05/06 04:08:46;;;;;;;4.30;3.30;;;;;;;19.98;47.97;101693.03;5026116;28;20041;-38
2023/05/06 04:11:13;;;;;;;4.35;3.25;;;;;;;19.99;48.22;101699.25;5030303;28;20222;-39
2023/05/06 04:13:39;;;;;;;6.97;3.90;;;;;;;19.96;48.66;101695.84;5026702;28;20057;-36
2023/05/06 04:16:06;;;;;;;5.40;4.25;;;;;;;19.96;48.08;101700.41;5027943;28;20073;-38
2023/05/06 04:18:33;;;;;;;5.90;3.38;;;;;;;19.96;48.73;101706.63;5023659;28;20412;-38
2023/05/06 04:20:59;;;;;;;4.47;3.17;;;;;;;19.95;48.01;101710.31;5027531;28;20068;-39
2023/05/06 04:23:26;;;;;;;5.05;3.65;;;;;;;19.96;48.22;101719.22;5025803;28;20512;-37
2023/05/06 04:25:53;;;;;;;5.53;3.63;;;;;;;19.94;48.84;101715.84;5026362;28;20366;-38
2023/05/06 04:28:19;;;;;;;4.43;3.45;;;;;;;19.95;48.81;101725.63;5021771;28;20056;-38
2023/05/06 04:30:46;;;;;;;4.25;3.20;;;;;;;19.94;48.88;101730.16;5023707;28;20060;-38
2023/05/06 04:33:12;;;;;;;4.80;3.40;;;;;;;19.95;48.07;101723.78;5025635;28;20049;-38
2023/05/06 04:35:39;;;;;;;4.30;3.45;;;;;;;19.95;47.92;101720.22;5028973;28;20057;-39
2023/05/06 04:38:06;;;;;;;5.32;3.58;;;;;;;19.95;48.17;101725.63;5026633;28;20124;-36
2023/05/06 04:40:35;;;;;;;4.22;3.50;;;;;;;19.96;48.46;101730.00;5025231;28;20052;-37
2023/05/06 04:43:02;;;;;;;4.32;3.33;;;;;;;19.97;48.58;101729.00;5026148;28;20065;-36
2023/05/06 04:45:28;;;;;;;3.70;2.72;;;;;;;19.97;48.00;101737.06;5028434;28;20104;-36
2023/05/06 04:47:55;;;;;;;3.15;2.58;;;;;;;19.98;48.51;101736.09;5025485;28;20148;-38
2023/05/06 04:50:22;;;;;;;3.67;2.75;;;;;;;20.00;48.33;101744.84;5030479;28;20041;-36
2023/05/06 04:52:48;;;;;;;4.13;3.20;;;;;;;20.01;48.44;101746.53;5030374;28;20140;-40
2023/05/06 04:55:15;;;;;;;4.50;3.03;;;;;;;20.03;48.48;101741.03;5028165;28;20124;-37
2023/05/06 04:57:41;;;;;;;4.07;3.10;;;;;;;20.03;48.07;101744.56;5026357;28;20056;-38
2023/05/06 05:00:09;;;;;;;3.70;3.00;;;;;;;20.05;47.98;101744.41;5025111;28;20064;-37
2023/05/06 05:02:36;;;;;;;4.10;2.92;;;;;;;20.07;48.20;101745.13;5025132;28;20045;-37
2023/05/06 05:05:03;;;;;;;4.03;2.92;;;;;;;20.07;48.41;101745.97;5022407;28;20123;-39
2023/05/06 05:07:29;;;;;;;3.67;2.78;;;;;;;20.07;48.33;101745.97;5025853;28;20132;-36
2023/05/06 05:09:56;;;;;;;3.42;2.53;;;;;;;20.08;48.02;101750.38;5026586;28;20041;-37
2023/05/06 05:12:23;;;;;;;3.75;2.90;;;;;;;20.08;48.45;101750.38;5027379;28;20042;-37
2023/05/06 05:14:50;;;;;;;4.22;3.42;;;;;;;20.08;48.42;101753.06;5022058;28;20054;-39
2023/05/06 05:17:16;;;;;;;3.70;2.42;;;;;;;20.08;48.39;101753.06;5023749;28;20044;-37
2023/05/06 05:19:43;;;;;;;3.92;3.03;;;;;;;20.08;47.70;101753.06;5019911;28;20084;-36
2023/05/06 05:22:10;;;;;;;3.53;2.70;;;;;;;20.09;48.36;101760.13;5023603;28;20053;-36
2023/05/06 05:24:36;;;;;;;3.60;2.60;;;;;;;20.09;47.95;101753.91;5021340;28;20168;-38
2023/05/06 05:27:03;;;;;;;3.38;2.78;;;;;;;20.09;48.27;101753.91;5026808;28;20053;-37
2023/05/06 05:29:29;;;;;;;3.80;2.72;;;;;;;20.09;48.11;101748.50;5028663;28;20442;-36
2023/05/06 05:31:56;;;;;;;3.83;2.80;;;;;;;20.08;47.86;101755.75;5029440;28;20049;-37
2023/05/06 05:34:22;;;;;;;4.28;2.80;;;;;;;20.08;48.14;101752.22;5025623;28;20136;-37
2023/05/06 05:36:49;;;;;;;3.28;2.53;;;;;;;20.07;48.21;101756.75;5030884;28;20061;-40
2023/05/06 05:39:15;;;;;;;3.45;2.53;;;;;;;20.08;47.57;101757.59;5030890;28;20068;-37
2023/05/06 05:41:42;;;;;;;3.10;2.40;;;;;;;20.08;48.01;101755.75;5025630;28;20064;-37
2023/05/06 05:44:09;;;;;;;4.20;2.75;;;;;;;20.09;48.12;101756.59;5029375;28;20072;-37
2023/05/06 05:46:35;;;;;;;3.78;2.72;;;;;;;20.09;48.25;101753.91;5028482;28;20057;-37
2023/05/06 05:49:02;;;;;;;3.78;2.78;;;;;;;20.09;48.25;101757.44;5028708;28;20050;-38
2023/05/06 05:51:29;;;;;;;4.15;2.63;;;;;;;20.09;48.01;101764.66;5027911;28;20085;-38
2023/05/06 05:53:56;;;;;;;3.90;2.90;;;;;;;20.08;48.13;101758.44;5025371;28;20089;-40
2023/05/06 05:56:23;;;;;;;4.05;2.90;;;;;;;20.09;47.94;101760.13;5027305;28;20128;-37
2023/05/06 05:58:49;;;;;;;3.65;2.67;;;;;;;20.09;48.07;101764.66;5027695;28;20342;-39
2023/05/06 06:01:16;;;;;;;4.03;2.88;;;;;;;20.08;48.36;101766.50;5023914;28;20068;-39
2023/05/06 06:03:43;;;;;;;4.15;2.88;;;;;;;20.08;48.22;101758.44;5023985;28;20438;-38
2023/05/06 06:06:10;;;;;;;3.30;2.40;;;;;;;20.10;48.30;101760.97;5025473;28;20047;-36
2023/05/06 06:08:37;;;;;;;4.20;2.40;;;;;;;20.10;47.81;101763.66;5024691;28;20673;-39
2023/05/06 06:11:04;;;;;;;3.03;2.53;;;;;;;20.10;47.59;101769.03;5018793;28;20041;-38
2023/05/06 06:13:31;;;;;;;2.97;2.30;;;;;;;20.10;48.01;101764.53;5022545;28;20050;-40
2023/05/06 06:15:57;;;;;;;2.67;2.38;;;;;;;20.10;47.71;101761.84;5024843;28;20443;-37
2023/05/06 06:18:24;;;;;;;3.20;2.67;;;;;;;20.10;47.51;101760.97;5020689;28;20045;-39
2023/05/06 06:20:51;;;;;;;4.25;2.72;;;;;;;20.11;47.86;101768.91;5019849;28;20049;-38
2023/05/06 06:23:19;;;;;;;3.53;2.42;;;;;;;20.12;48.08;101764.38;5022491;28;20141;-37
2023/05/06 06:25:46;;;;;;;3.22;2.35;;;;;;;20.11;47.81;101763.53;5021913;28;20049;-39
2023/05/06 06:28:13;;;;;;;2.53;2.30;;;;;;;20.12;47.78;101765.22;5031575;28;20054;-38
2023/05/06 06:30:39;;;;;;;3.42;2.47;;;;;;;20.13;47.48;101763.38;5019403;28;20077;-38
2023/05/06 06:33:06;;;;;;;3.22;2.42;;;;;;;20.13;47.62;101766.91;5020905;28;20104;-38
2023/05/06 06:35:33;;;;;;;2.90;2.40;;;;;;;20.14;47.86;101771.34;5026977;28;20422;-40
2023/05/06 06:38:03;;;;;;;3.50;2.53;;;;;;;20.15;47.76;101766.78;5026240;28;20045;-37
2023/05/06 06:40:29;;;;;;;2.75;2.20;;;;;;;20.16;47.44;101763.09;5021455;28;20052;-37
2023/05/06 06:42:56;;;;;;;2.72;2.25;;;;;;;20.16;48.10;101774.72;5023146;28;20058;-37
2023/05/06 06:45:22;;;;;;;2.75;2.15;;;;;;;20.17;47.94;101773.72;5028658;28;20053;-37
2023/05/06 06:47:49;;;;;;;3.72;2.63;;;;;;;20.20;47.72;101794.13;5026429;28;20342;-38
2023/05/06 06:50:16;;;;;;;4.03;2.40;;;;;;;20.20;47.72;101783.34;5026579;28;20091;-37
2023/05/06 06:52:43;;;;;;;2.88;2.38;;;;;;;20.21;47.56;101785.88;5023080;28;20482;-37
2023/05/06 06:55:09;;;;;;;3.70;2.65;;;;;;;20.23;47.74;101787.59;5022770;28;20439;-38
2023/05/06 06:57:39;;;;;;;2.67;2.10;;;;;;;20.26;47.74;101784.59;5020973;28;20045;-40
2023/05/06 07:00:06;;;;;;;2.88;2.30;;;;;;;20.26;48.04;101781.91;5023302;28;20049;-37
2023/05/06 07:02:33;;;;;;;3.08;2.40;;;;;;;20.28;47.88;101790.69;5022830;28;20048;-39
2023/05/06 07:05:00;;;;;;;2.97;2.33;;;;;;;20.29;47.94;101787.84;5023511;28;20077;-37
2023/05/06 07:07:26;;;;;;;3.20;2.22;;;;;;;20.31;47.31;101779.66;5023654;28;20112;-39
2023/05/06 07:09:53;;;;;;;2.75;2.40;;;;;;;20.31;47.62;101785.88;5020766;28;20060;-41
2023/05/06 07:12:20;;;;;;;3.58;2.35;;;;;;;20.33;47.96;101783.88;5020832;28;20046;-40
2023/05/06 07:14:46;;;;;;;4.10;2.47;;;;;;;20.34;47.29;101785.59;5021193;28;20046;-38
2023/05/06 07:17:13;;;;;;;3.40;2.70;;;;;;;20.35;47.52;101781.91;5019380;28;20050;-37
2023/05/06 07:19:39;;;;;;;3.15;2.20;;;;;;;20.36;47.19;101783.59;5024647;28;20057;-39
2023/05/06 07:22:06;;;;;;;4.65;2.45;;;;;;;20.37;47.83;101787.97;5024428;28;20081;-38
2023/05/06 07:24:33;;;;;;;2.95;2.38;;;;;;;20.39;47.21;101785.16;5020335;28;20046;-36
2023/05/06 07:27:01;;;;;;;2.50;2.30;;;;;;;20.40;47.21;101786.84;5022908;28;20429;-40
2023/05/06 07:29:27;;;;;;;3.13;2.40;;;;;;;20.41;47.31;101780.44;5022104;28;20472;-40
2023/05/06 07:31:54;;;;;;;2.95;2.53;;;;;;;20.42;47.18;101787.53;5021299;28;20054;-38
2023/05/06 07:34:20;;;;;;;3.35;2.40;;;;;;;20.43;47.80;101794.63;5020861;28;20056;-39
2023/05/06 07:36:47;;;;;;;3.03;2.42;;;;;;;20.44;47.64;101791.78;5024109;28;20072;-41
2023/05/06 07:39:13;;;;;;;3.05;2.38;;;;;;;20.44;47.66;101786.41;5017255;28;20457;-40
2023/05/06 07:41:40;;;;;;;3.80;2.22;;;;;;;20.45;47.14;101798.84;5019837;28;20041;-37
2023/05/06 07:44:07;;;;;;;3.63;2.63;;;;;;;20.46;47.02;101803.28;5018879;28;20098;-38
2023/05/06 07:46:33;;;;;;;4.28;2.67;;;;;;;20.49;47.07;101806.69;5018334;28;20053;-38
2023/05/06 07:49:00;;;;;;;2.80;2.10;;;;;;;20.48;47.25;101802.28;5024353;28;20128;-37
2023/05/06 07:51:27;;;;;;;3.17;2.70;;;;;;;20.49;47.27;101804.84;5019288;28;20124;-38
2023/05/06 07:53:53;;;;;;;2.95;2.30;;;;;;;20.50;47.66;101811.91;5018450;28;20046;-39
2023/05/06 07:56:20;;;;;;;2.83;2.00;;;;;;;20.51;47.03;101810.09;5018098;28;20045;-37
2023/05/06 07:58:48;;;;;;;3.00;2.45;;;;;;;20.52;47.65;101804.56;5018285;28;20145;-38
2023/05/06 08:01:15;;;;;;;3.58;2.72;;;;;;;20.53;47.40;101805.41;5018291;28;20103;-39
2023/05/06 08:03:42;;;;;;;3.63;2.50;;;;;;;20.54;47.04;101807.09;5023708;28;20080;-37
2023/05/06 08:06:09;;;;;;;3.33;2.50;;;;;;;20.55;47.16;101812.34;5024132;28;20136;-40
2023/05/06 08:08:36;;;;;;;3.00;2.60;;;;;;;20.57;47.19;101817.56;5023006;28;20100;-37
2023/05/06 08:11:02;;;;;;;3.50;2.60;;;;;;;20.58;47.19;101805.78;5020540;28;20045;-38
2023/05/06 08:13:29;;;;;;;3.88;2.58;;;;;;;20.60;47.63;101818.13;5017125;28;20441;-38
2023/05/06 08:15:56;;;;;;;4.05;2.70;;;;;;;20.60;47.67;101818.13;5018047;28;20054;-37
2023/05/06 08:18:22;;;;;;;3.13;2.22;;;;;;;20.61;47.07;101817.13;5015959;28;20041;-40
2023/05/06 08:20:50;;;;;;;4.15;2.78;;;;;;;20.62;47.00;101816.16;5019778;28;21344;-38
2023/05/06 08:23:16;;;;;;;3.58;2.92;;;;;;;20.63;47.08;101812.47;5023220;28;20050;-37
2023/05/06 08:25:43;;;;;;;4.95;3.25;;;;;;;20.65;47.39;101810.44;5024187;28;20042;-40
2023/05/06 08:28:09;;;;;;;9.77;4.53;;;;;;;20.66;47.22;101809.47;5025892;28;20093;-37
2023/05/06 08:30:36;;;;;;;5.85;3.88;;;;;;;20.68;47.14;101809.31;5023841;28;20379;-38
2023/05/06 08:33:03;;;;;;;4.63;3.22;;;;;;;20.69;47.20;101811.00;5022250;28;20057;-38
2023/05/06 08:35:29;;;;;;;5.32;3.38;;;;;;;20.69;47.15;101809.16;5024539;28;20049;-38
2023/05/06 08:37:56;;;;;;;5.00;3.28;;;;;;;20.70;47.09;101816.28;5024358;28;20045;-38
2023/05/06 08:40:25;;;;;;;4.60;3.38;;;;;;;20.71;47.27;101811.72;5023425;28;20298;-39
2023/05/06 08:42:54;;;;;;;5.15;3.50;;;;;;;20.72;47.01;101804.50;5027316;28;20132;-41
2023/05/06 08:45:22;;;;;;;5.00;3.30;;;;;;;20.73;46.95;101811.56;5024896;28;20128;-39
2023/05/06 08:47:48;;;;;;;6.43;4.07;;;;;;;20.74;46.91;101814.09;5023793;28;20046;-39
2023/05/06 08:50:15;;;;;;;5.95;3.45;;;;;;;20.75;47.32;101813.13;5023842;28;20451;-39
2023/05/06 08:52:42;;;;;;;5.13;3.80;;;;;;;20.76;47.21;101812.13;5027200;28;20046;-38
2023/05/06 08:55:09;;;;;;;6.20;4.03;;;;;;;20.77;47.05;101804.88;5022327;28;20126;-37
2023/05/06 08:57:36;;;;;;;5.55;3.50;;;;;;;20.78;47.01;101802.03;5024384;28;20112;-37
2023/05/06 09:00:03;;;;;;;4.90;3.40;;;;;;;20.79;47.12;101805.59;5017417;28;20065;-40
2023/05/06 09:02:30;;;;;;;4.70;3.38;;;;;;;20.79;47.42;101803.75;5018386;28;20589;-41
2023/05/06 09:04:58;;;;;;;5.13;3.60;;;;;;;20.81;47.06;101801.75;5026416;28;20053;-37
2023/05/06 09:07:25;;;;;;;4.57;3.33;;;;;;;20.82;47.32;101794.50;5021112;28;20344;-36
2023/05/06 09:09:52;;;;;;;5.40;3.65;;;;;;;20.83;46.81;101794.38;5022723;28;20059;-40
2023/05/06 09:12:18;;;;;;;4.20;3.03;;;;;;;20.84;46.67;101796.06;5024028;28;20038;-40
2023/05/06 09:14:48;;;;;;;5.00;3.58;;;;;;;20.85;46.89;101789.66;5017185;28;20049;-38
2023/05/06 09:17:22;;;;;;;3.55;2.95;;;;;;;20.86;47.00;101798.59;5022137;28;20318;-39
2023/05/06 09:19:51;;;;;;;4.55;3.10;;;;;;;20.88;46.68;101794.75;5022020;28;20068;-36
2023/05/06 09:22:21;;;;;;;5.18;3.08;;;;;;;20.91;46.58;101790.94;5022078;28;20049;-37
2023/05/06 09:24:55;;;;;;;4.57;3.17;;;;;;;20.92;46.56;101792.63;5023878;28;20057;-40
2023/05/06 09:27:24;;;;;;;5.07;3.00;;;;;;;20.93;46.66;101786.22;5020424;28;20050;-37
2023/05/06 09:30:08;;;;;;;4.45;3.10;;;;;;;20.94;46.98;101777.13;5022432;28;20058;-39
2023/05/06 09:32:35;;;;;;;4.75;3.33;;;;;;;20.97;46.72;101781.38;5025797;28;20060;-37
2023/05/06 09:35:06;;;;;;;5.38;3.20;;;;;;;20.99;47.00;101780.25;5020772;28;20057;-38
2023/05/06 09:37:32;;;;;;;5.38;3.60;;;;;;;21.01;46.69;101780.09;5017961;28;20068;-39
2023/05/06 09:39:59;;;;;;;3.78;2.80;;;;;;;21.03;46.54;101781.66;5018916;28;20401;-40
2023/05/06 09:42:28;;;;;;;5.20;3.45;;;;;;;21.04;46.83;101775.25;5019787;28;20409;-38
2023/05/06 09:45:00;;;;;;;5.20;3.65;;;;;;;21.07;46.89;101777.66;5020916;28;20060;-37
2023/05/06 09:47:33;;;;;;;3.88;2.88;;;;;;;21.08;46.73;101765.84;5021553;28;20049;-40
2023/05/06 09:50:03;;;;;;;5.10;3.38;;;;;;;21.12;47.02;101769.09;5021191;28;20053;-40
2023/05/06 09:52:30;;;;;;;6.07;3.15;;;;;;;21.15;47.13;101764.25;5020129;28;20132;-40
2023/05/06 09:54:58;;;;;;;5.28;3.30;;;;;;;21.18;47.02;101768.47;5020686;28;20076;-37
2023/05/06 09:57:25;;;;;;;4.53;3.35;;;;;;;21.21;46.77;101770.88;5016670;28;20056;-41
2023/05/06 09:59:54;;;;;;;5.00;3.33;;;;;;;21.24;47.27;101767.88;5020425;28;20049;-40
2023/05/06 10:02:22;;;;;;;6.93;3.58;;;;;;;21.28;46.91;101768.44;5017378;28;20053;-40
2023/05/06 10:04:52;;;;;;;5.50;3.13;;;;;;;21.30;46.94;101767.25;5021462;28;20461;-40
2023/05/06 10:07:24;;;;;;;5.88;4.15;;;;;;;21.32;47.12;101761.72;5016388;28;20428;-40
2023/05/06 10:09:53;;;;;;;5.22;3.25;;;;;;;21.33;47.53;101766.16;5014359;28;20591;-38
2023/05/06 10:12:19;;;;;;;6.03;3.60;;;;;;;21.34;46.90;101768.69;5014394;28;20052;-39
2023/05/06 10:14:46;;;;;;;5.88;3.63;;;;;;;21.34;47.01;101763.28;5021335;28;20508;-39
2023/05/06 10:17:13;;;;;;;6.00;3.85;;;;;;;21.37;47.13;101762.16;5019589;28;20103;-40
2023/05/06 10:19:43;;;;;;;4.13;3.03;;;;;;;21.37;46.80;101759.44;5020993;28;20441;-45
2023/05/06 10:22:44;;;;;;;6.35;3.92;;;;;;;21.38;47.27;101766.53;5021976;28;20128;-40
2023/05/06 10:25:28;;;;;;;6.30;3.72;;;;;;;21.40;47.14;101762.69;5025642;28;20046;-40
2023/05/06 10:27:56;;;;;;;5.50;3.25;;;;;;;21.42;47.26;101760.66;5023666;28;20061;-40
2023/05/06 10:30:25;;;;;;;5.82;3.50;;;;;;;21.45;46.85;101759.53;5022404;28;20056;-40
2023/05/06 10:32:55;;;;;;;4.95;3.33;;;;;;;21.46;46.98;101760.38;5019578;28;20053;-41
2023/05/06 10:35:43;;;;;;;6.78;3.30;;;;;;;21.47;47.14;101757.53;5022710;28;20050;-41
2023/05/06 10:38:25;;;;;;;6.72;3.70;;;;;;;21.48;47.05;101764.63;5019608;28;20066;-40
2023/05/06 10:40:54;;;;;;;8.27;3.60;;;;;;;21.49;46.57;101752.81;5022723;28;20140;-38
2023/05/06 10:43:29;;;;;;;6.47;3.67;;;;;;;21.50;46.90;101757.22;5024553;28;20441;-40
2023/05/06 10:46:09;;;;;;;10.73;6.65;;;;;;;21.51;47.60;101752.66;5002280;28;20057;-43
2023/05/06 10:48:38;;;;;;;10.35;6.28;;;;;;;21.51;47.87;101758.94;5016004;28;20061;-44
2023/05/06 10:51:27;;;;;;;9.85;6.60;;;;;;;21.50;48.38;101753.66;5011852;28;20068;-42
2023/05/06 10:54:01;;;;;;;10.27;5.90;;;;;;;21.50;48.24;101751.81;5008653;28;20042;-43
2023/05/06 10:56:30;;;;;;;11.38;6.00;;;;;;;21.50;48.31;101746.41;5007048;28;20054;-41
2023/05/06 10:59:02;;;;;;;9.77;5.70;;;;;;;21.51;48.01;101750.84;4993124;28;20064;-41
2023/05/06 11:01:29;;;;;;;10.80;7.17;;;;;;;21.52;47.94;101743.59;5009977;28;20091;-42
2023/05/06 11:03:56;;;;;;;10.05;6.05;;;;;;;21.52;48.67;101747.13;5010387;28;20053;-42
2023/05/06 11:06:45;;;;;;;15.80;6.55;;;;;;;21.53;48.37;101735.31;5003272;28;20349;-43
2023/05/06 11:09:29;;;;;;;8.93;5.43;;;;;;;21.56;48.65;101740.41;5005967;28;20143;-45
2023/05/06 11:12:03;;;;;;;10.80;6.00;;;;;;;21.60;48.45;101743.66;5007451;28;20286;-44
2023/05/06 11:14:34;;;;;;;17.33;7.32;;;;;;;21.64;49.40;101732.41;5011468;28;20429;-45
2023/05/06 11:17:03;;;;;;;12.65;5.13;;;;;;;21.67;48.85;101740.19;5012167;28;20053;-45
2023/05/06 11:19:36;;;;;;;11.02;5.60;;;;;;;21.73;49.12;101735.16;4981367;28;20479;-45
2023/05/06 11:22:04;;;;;;;15.68;6.32;;;;;;;21.80;49.25;101737.06;5016986;28;20056;-45
2023/05/06 11:24:39;;;;;;;21.63;6.82;;;;;;;21.88;50.43;101729.03;5012823;28;20069;-43
2023/05/06 11:27:06;;;;;;;22.80;6.85;;;;;;;21.97;50.91;101729.09;5014675;28;20058;-45
2023/05/06 11:29:33;;;;;;;21.77;7.78;;;;;;;22.06;52.94;101730.84;5012686;28;20061;-44